GTAJB EGLL-EGKA
Flight info
| Callsign | GTAJB |
|---|---|
| Flight time | 0h 24m |
| Altitude | 1200 |
| Route | H9 |
| Aircraft | EC45/L-VGDW/C |
Departure
| Time | 2026-05-03 20:19 |
|---|---|
| Airport | London Heathrow Airport (EGLL) |
Arrival
| Time | 2026-05-03 20:43 |
|---|---|
| Airport | Brighton City Airport (EGKA) |
| Time | Latitude | Longitude | Altitude | Speed | Heading |
|---|---|---|---|---|---|
| 2026-05-03 20:15 | 51.46206 | -0.45274 | 100 ft | 12 kts | 87° |
| 2026-05-03 20:15 | 51.46226 | -0.45178 | 94 ft | 8 kts | 88° |
| 2026-05-03 20:15 | 51.46229 | -0.45153 | 86 ft | 2 kts | 88° |
| 2026-05-03 20:15 | 51.46229 | -0.45151 | 85 ft | 0 kts | 88° |
| 2026-05-03 20:16 | 51.46229 | -0.45150 | 85 ft | 0 kts | 89° |
| 2026-05-03 20:16 | 51.46227 | -0.45144 | 107 ft | 6 kts | 94° |
| 2026-05-03 20:16 | 51.46137 | -0.44890 | 320 ft | 44 kts | 103° |
| 2026-05-03 20:17 | 51.45935 | -0.44294 | 573 ft | 66 kts | 123° |
| 2026-05-03 20:17 | 51.45730 | -0.43825 | 585 ft | 34 kts | 129° |
| 2026-05-03 20:17 | 51.45643 | -0.43661 | 653 ft | 7 kts | 129° |
| 2026-05-03 20:17 | 51.45631 | -0.43737 | 743 ft | 17 kts | 129° |
| 2026-05-03 20:18 | 51.45672 | -0.44005 | 741 ft | 23 kts | 129° |
| 2026-05-03 20:18 | 51.45689 | -0.44088 | 768 ft | 0 kts | 129° |
| 2026-05-03 20:18 | 51.45691 | -0.44086 | 783 ft | 0 kts | 129° |
| 2026-05-03 20:18 | 51.45691 | -0.44084 | 791 ft | 0 kts | 171° |
| 2026-05-03 20:19 | 51.45632 | -0.44097 | 804 ft | 24 kts | 167° |
| 2026-05-03 20:19 | 51.45355 | -0.44022 | 804 ft | 57 kts | 144° |
| 2026-05-03 20:19 | 51.44911 | -0.43605 | 794 ft | 91 kts | 143° |
| 2026-05-03 20:20 | 51.44427 | -0.42989 | 804 ft | 84 kts | 141° |
| 2026-05-03 20:20 | 51.43927 | -0.42543 | 802 ft | 82 kts | 162° |
| 2026-05-03 20:20 | 51.43389 | -0.42279 | 801 ft | 80 kts | 165° |
| 2026-05-03 20:20 | 51.42860 | -0.42028 | 800 ft | 79 kts | 165° |
| 2026-05-03 20:21 | 51.42337 | -0.41779 | 800 ft | 78 kts | 165° |
| 2026-05-03 20:21 | 51.41822 | -0.41534 | 800 ft | 77 kts | 165° |
| 2026-05-03 20:21 | 51.41309 | -0.41289 | 800 ft | 77 kts | 165° |
| 2026-05-03 20:21 | 51.40799 | -0.41044 | 799 ft | 76 kts | 165° |
| 2026-05-03 20:22 | 51.40291 | -0.40804 | 800 ft | 76 kts | 165° |
| 2026-05-03 20:22 | 51.39785 | -0.40563 | 800 ft | 76 kts | 165° |
| 2026-05-03 20:22 | 51.39280 | -0.40322 | 799 ft | 76 kts | 165° |
| 2026-05-03 20:22 | 51.38745 | -0.40070 | 774 ft | 94 kts | 165° |
| 2026-05-03 20:23 | 51.38106 | -0.39783 | 800 ft | 92 kts | 163° |
| 2026-05-03 20:23 | 51.37530 | -0.39332 | 798 ft | 93 kts | 152° |
| 2026-05-03 20:23 | 51.36966 | -0.38829 | 799 ft | 93 kts | 152° |
| 2026-05-03 20:23 | 51.36403 | -0.38325 | 801 ft | 92 kts | 152° |
| 2026-05-03 20:24 | 51.35842 | -0.37823 | 799 ft | 92 kts | 152° |
| 2026-05-03 20:24 | 51.35281 | -0.37320 | 800 ft | 93 kts | 152° |
| 2026-05-03 20:24 | 51.34768 | -0.36731 | 799 ft | 93 kts | 127° |
| 2026-05-03 20:24 | 51.34620 | -0.36094 | 809 ft | 87 kts | 93° |
| 2026-05-03 20:25 | 51.34670 | -0.35232 | 808 ft | 69 kts | 84° |
| 2026-05-03 20:25 | 51.34574 | -0.34583 | 800 ft | 56 kts | 117° |
| 2026-05-03 20:25 | 51.34235 | -0.33941 | 800 ft | 59 kts | 149° |
| 2026-05-03 20:25 | 51.33995 | -0.33707 | 800 ft | 59 kts | 150° |
| 2026-05-03 20:26 | 51.33639 | -0.33371 | 800 ft | 60 kts | 151° |
| 2026-05-03 20:26 | 51.33283 | -0.33036 | 800 ft | 60 kts | 151° |
| 2026-05-03 20:26 | 51.32921 | -0.32694 | 800 ft | 60 kts | 150° |
| 2026-05-03 20:26 | 51.32557 | -0.32348 | 799 ft | 61 kts | 151° |
| 2026-05-03 20:27 | 51.32189 | -0.32000 | 799 ft | 62 kts | 151° |
| 2026-05-03 20:27 | 51.31821 | -0.31651 | 800 ft | 62 kts | 151° |
| 2026-05-03 20:27 | 51.31347 | -0.31219 | 780 ft | 97 kts | 152° |
| 2026-05-03 20:27 | 51.30683 | -0.30642 | 806 ft | 110 kts | 152° |
| 2026-05-03 20:28 | 51.29979 | -0.30012 | 795 ft | 121 kts | 151° |
| 2026-05-03 20:28 | 51.29228 | -0.29340 | 800 ft | 124 kts | 151° |
| 2026-05-03 20:28 | 51.28488 | -0.28669 | 880 ft | 122 kts | 151° |
| 2026-05-03 20:28 | 51.27758 | -0.28008 | 987 ft | 119 kts | 151° |
| 2026-05-03 20:29 | 51.27044 | -0.27362 | 1086 ft | 117 kts | 151° |
| 2026-05-03 20:29 | 51.26315 | -0.26703 | 1040 ft | 123 kts | 151° |
| 2026-05-03 20:29 | 51.25560 | -0.26018 | 1022 ft | 125 kts | 150° |
| 2026-05-03 20:29 | 51.24798 | -0.25325 | 1012 ft | 127 kts | 151° |
| 2026-05-03 20:30 | 51.24033 | -0.24625 | 1006 ft | 126 kts | 151° |
| 2026-05-03 20:30 | 51.23272 | -0.23929 | 1003 ft | 125 kts | 151° |
| 2026-05-03 20:30 | 51.22516 | -0.23239 | 1003 ft | 125 kts | 151° |
| 2026-05-03 20:30 | 51.21762 | -0.22549 | 1001 ft | 125 kts | 150° |
| 2026-05-03 20:31 | 51.21012 | -0.21860 | 1001 ft | 124 kts | 151° |
| 2026-05-03 20:31 | 51.20264 | -0.21175 | 1001 ft | 124 kts | 151° |
| 2026-05-03 20:31 | 51.19518 | -0.20494 | 1000 ft | 124 kts | 151° |
| 2026-05-03 20:31 | 51.18772 | -0.19813 | 1000 ft | 123 kts | 151° |
| 2026-05-03 20:32 | 51.18036 | -0.19144 | 999 ft | 123 kts | 151° |
| 2026-05-03 20:32 | 51.17284 | -0.18490 | 1001 ft | 123 kts | 156° |
| 2026-05-03 20:32 | 51.16492 | -0.17991 | 1000 ft | 123 kts | 160° |
| 2026-05-03 20:32 | 51.15680 | -0.17562 | 1000 ft | 122 kts | 163° |
| 2026-05-03 20:33 | 51.14863 | -0.17164 | 1001 ft | 123 kts | 163° |
| 2026-05-03 20:33 | 51.14042 | -0.16801 | 999 ft | 122 kts | 172° |
| 2026-05-03 20:33 | 51.13196 | -0.16861 | 1001 ft | 122 kts | 188° |
| 2026-05-03 20:33 | 51.12358 | -0.17060 | 1000 ft | 122 kts | 190° |
| 2026-05-03 20:34 | 51.11531 | -0.17343 | 1000 ft | 122 kts | 194° |
| 2026-05-03 20:34 | 51.10706 | -0.17668 | 1000 ft | 122 kts | 195° |
| 2026-05-03 20:34 | 51.09886 | -0.17994 | 1001 ft | 122 kts | 195° |
| 2026-05-03 20:34 | 51.09076 | -0.18317 | 1000 ft | 122 kts | 195° |
| 2026-05-03 20:35 | 51.08255 | -0.18647 | 1001 ft | 122 kts | 195° |
| 2026-05-03 20:35 | 51.07431 | -0.18977 | 1001 ft | 122 kts | 195° |
| 2026-05-03 20:35 | 51.06611 | -0.19305 | 999 ft | 122 kts | 195° |
| 2026-05-03 20:35 | 51.05790 | -0.19635 | 999 ft | 122 kts | 195° |
| 2026-05-03 20:36 | 51.04970 | -0.19965 | 1000 ft | 122 kts | 195° |
| 2026-05-03 20:36 | 51.04148 | -0.20295 | 1001 ft | 122 kts | 195° |
| 2026-05-03 20:36 | 51.03329 | -0.20621 | 1000 ft | 121 kts | 195° |
| 2026-05-03 20:36 | 51.02509 | -0.20949 | 1000 ft | 122 kts | 195° |
| 2026-05-03 20:37 | 51.01688 | -0.21277 | 1001 ft | 122 kts | 195° |
| 2026-05-03 20:37 | 51.00867 | -0.21604 | 1000 ft | 122 kts | 195° |
| 2026-05-03 20:37 | 51.00046 | -0.21930 | 1001 ft | 121 kts | 195° |
| 2026-05-03 20:37 | 50.99226 | -0.22257 | 1000 ft | 121 kts | 195° |
| 2026-05-03 20:38 | 50.98405 | -0.22584 | 1000 ft | 122 kts | 195° |
| 2026-05-03 20:38 | 50.97596 | -0.22907 | 1000 ft | 121 kts | 195° |
| 2026-05-03 20:38 | 50.96767 | -0.23238 | 1001 ft | 121 kts | 195° |
| 2026-05-03 20:38 | 50.95957 | -0.23560 | 1001 ft | 121 kts | 195° |
| 2026-05-03 20:39 | 50.95138 | -0.23884 | 1001 ft | 121 kts | 195° |
| 2026-05-03 20:39 | 50.94318 | -0.24209 | 1000 ft | 121 kts | 195° |
| 2026-05-03 20:39 | 50.93498 | -0.24532 | 1000 ft | 121 kts | 194° |
| 2026-05-03 20:39 | 50.92699 | -0.24955 | 999 ft | 121 kts | 209° |
| 2026-05-03 20:40 | 50.91992 | -0.25674 | 1001 ft | 121 kts | 215° |
| 2026-05-03 20:40 | 50.91301 | -0.26438 | 993 ft | 121 kts | 217° |
| 2026-05-03 20:40 | 50.90610 | -0.27189 | 954 ft | 121 kts | 213° |
| 2026-05-03 20:40 | 50.89898 | -0.27867 | 982 ft | 118 kts | 211° |
| 2026-05-03 20:41 | 50.89192 | -0.28522 | 1006 ft | 117 kts | 211° |
| 2026-05-03 20:41 | 50.88442 | -0.28995 | 1023 ft | 116 kts | 194° |
| 2026-05-03 20:41 | 50.87646 | -0.29180 | 1031 ft | 115 kts | 188° |
| 2026-05-03 20:41 | 50.86878 | -0.29271 | 957 ft | 106 kts | 182° |
| 2026-05-03 20:42 | 50.86199 | -0.29248 | 976 ft | 90 kts | 179° |
| 2026-05-03 20:42 | 50.85556 | -0.29194 | 837 ft | 91 kts | 178° |
| 2026-05-03 20:42 | 50.84966 | -0.29193 | 734 ft | 78 kts | 184° |
| 2026-05-03 20:42 | 50.84506 | -0.29210 | 557 ft | 55 kts | 182° |
| 2026-05-03 20:43 | 50.84134 | -0.29226 | 450 ft | 61 kts | 185° |
| 2026-05-03 20:43 | 50.83688 | -0.29320 | 276 ft | 59 kts | 193° |
| 2026-05-03 20:43 | 50.83367 | -0.29578 | 143 ft | 41 kts | 251° |
| 2026-05-03 20:43 | 50.83477 | -0.29618 | 71 ft | 39 kts | 74° |
| 2026-05-03 20:44 | 50.83498 | -0.29250 | 53 ft | 14 kts | 106° |
| 2026-05-03 20:44 | 50.83489 | -0.29171 | 33 ft | 3 kts | 147° |
| 2026-05-03 20:44 | 50.83485 | -0.29166 | 24 ft | 3 kts | 161° |
| 2026-05-03 20:44 | 50.83483 | -0.29165 | 17 ft | 0 kts | 162° |
| 2026-05-03 20:45 | 50.83481 | -0.29164 | 18 ft | 1 kts | 166° |
| 2026-05-03 20:45 | 50.83479 | -0.29164 | 16 ft | 0 kts | 165° |